Tim Quigg — WDB6570 — position and weather

sailwx.info

Track history (hours):
 
Tides and Currents Weather Stations Pressure Air Temp Water Temp Dewpoint Dewpoint Depression Visibility Wind Speed Wind Dir Waves Ship Positions

Tim Quigg

Owner: Harley Marine Services, Inc, Seattle, WA. More information available from US FCC via Universal Licensing System and Coast Guard Vessel Documentation Center.

Last reported at 2015-Apr-25 22:29 UTC. Time now 2015-Apr-26 13:04 UTC.
Position N 33°44' W 118°17'.

; draft 7.5 m.

Type: Tug. MMSI: 366926740.

Date/timePositionNaut miles runAvg speedWind from/ knotsBaromVisibWave heightAir tempDewpointWater temp
2015-Apr-25 22:29N 33°44' W 118°17'3 1.7
2015-Apr-25 20:33N 33°46' W 118°13'1 0.8
2015-Apr-25 19:33N 33°47' W 118°13'0 0.0
2015-Apr-25 18:33N 33°47' W 118°13'0 0.0
2015-Apr-25 17:33N 33°47' W 118°13'0 0.0
2015-Apr-25 16:33N 33°47' W 118°13'0 0.0
2015-Apr-25 15:33N 33°47' W 118°13'0 0.0
2015-Apr-25 14:32N 33°47' W 118°13'0 0.0
2015-Apr-25 13:32N 33°47' W 118°13'0 0.0
2015-Apr-25 12:04N 33°47' W 118°13'0 0.0
2015-Apr-25 10:27N 33°47' W 118°13'0 0.0
2015-Apr-24 23:20N 33°47' W 118°13'0 0.0
2015-Apr-24 22:22N 33°47' W 118°13'0 0.0
2015-Apr-24 21:31N 33°47' W 118°13'0 0.0
2015-Apr-24 20:23N 33°47' W 118°13'0 0.0
2015-Apr-24 19:33N 33°47' W 118°13'1 0.6
2015-Apr-24 18:34N 33°46' W 118°13'3 3.1
2015-Apr-24 17:33N 33°44' W 118°16'0 0.0
2015-Apr-23 21:18N 33°44' W 118°16'0 0.0
2015-Apr-23 20:26N 33°44' W 118°16'0 0.0
2015-Apr-23 19:28N 33°44' W 118°16'0 0.0
2015-Apr-23 18:31N 33°44' W 118°16'1 0.2
2015-Apr-23 12:17N 33°45' W 118°16'1 0.3
2015-Apr-23 09:32N 33°46' W 118°16'4 2.7
2015-Apr-23 08:10N 33°44' W 118°12'0 0.0
2015-Apr-23 07:33N 33°44' W 118°12'4 1.3
2015-Apr-23 04:33N 33°46' W 118°16'3 0.6
2015-Apr-22 23:05N 33°42' W 118°15'2 3.1
2015-Apr-22 22:33N 33°44' W 118°14'2 2.0
2015-Apr-22 21:33N 33°45' W 118°13'1 0.6
2015-Apr-22 20:33N 33°45' W 118°13'3 1.7
2015-Apr-22 19:04N 33°44' W 118°16'0 0.0
2015-Apr-22 18:32N 33°44' W 118°16'3 2.6
2015-Apr-22 17:33N 33°45' W 118°13'1 1.2
2015-Apr-22 16:32N 33°46' W 118°13'1 1.3
2015-Apr-22 15:24N 33°45' W 118°13'1 0.8
2015-Apr-22 14:29N 33°44' W 118°12'3 1.5
2015-Apr-22 12:33N 33°45' W 118°16'2 0.5
2015-Apr-22 09:04N 33°44' W 118°15'2 2.5
2015-Apr-22 08:21N 33°44' W 118°13'2 2.4
2015-Apr-22 07:32N 33°46' W 118°13'0 0.4
2015-Apr-22 06:31N 33°46' W 118°13'4 1.5
2015-Apr-22 04:11N 33°44' W 118°16'0 0.0
2015-Apr-22 03:08N 33°44' W 118°16'0 0.6
2015-Apr-22 02:30N 33°43' W 118°16'3 2.4
2015-Apr-22 01:19N 33°45' W 118°13'0 0.1
2015-Apr-22 00:33N 33°45' W 118°13'2 2.0
2015-Apr-21 23:33N 33°44' W 118°12'3 3.1
2015-Apr-21 22:33N 33°44' W 118°16'0 0.0
2015-Apr-21 21:32N 33°44' W 118°16'0 0.0
2015-Apr-21 20:20N 33°44' W 118°16'0 0.0
2015-Apr-21 19:30N 33°44' W 118°16'1 1.3
2015-Apr-21 18:31N 33°45' W 118°16'2 1.6
2015-Apr-21 17:18N 33°43' W 118°16'4 2.2
2015-Apr-21 15:33N 33°46' W 118°13'1 1.0
2015-Apr-21 14:33N 33°45' W 118°13'0 0.0
2015-Apr-21 13:33N 33°45' W 118°13'3 2.5
2015-Apr-21 12:31N 33°45' W 118°16'2 0.3
2015-Apr-21 05:12N 33°44' W 118°14'3 1.6
2015-Apr-21 03:32N 33°46' W 118°16'0 0.2
2015-Apr-21 02:29N 33°46' W 118°16'2 2.6
2015-Apr-21 01:33N 33°46' W 118°13'2 2.0
2015-Apr-21 00:33N 33°44' W 118°13'0 0.2
2015-Apr-20 23:33N 33°45' W 118°13'2 2.0
2015-Apr-20 22:33N 33°46' W 118°13'1 1.3
2015-Apr-20 21:33N 33°45' W 118°13'3 2.6
2015-Apr-20 20:31N 33°44' W 118°16'0 0.1
2015-Apr-20 18:32N 33°44' W 118°16'0 0.0
2015-Apr-20 17:17N 33°44' W 118°16'3 4.3
2015-Apr-20 16:33N 33°46' W 118°13'3 0.6
2015-Apr-20 11:32N 33°45' W 118°16'0 0.1
2015-Apr-20 10:32N 33°45' W 118°16'1 0.5
2015-Apr-20 08:22N 33°44' W 118°16'0 0.0
2015-Apr-20 07:14N 33°44' W 118°16'0 0.0
2015-Apr-20 06:33N 33°44' W 118°16'0 0.0
2015-Apr-20 05:33N 33°44' W 118°16'0 0.0
2015-Apr-20 04:33N 33°44' W 118°16'0 0.0
2015-Apr-20 03:33N 33°44' W 118°16'0 0.0
2015-Apr-20 02:33N 33°44' W 118°16'0 0.0
2015-Apr-20 01:33N 33°44' W 118°16'0 0.0
2015-Apr-20 00:33N 33°44' W 118°16'0 0.0
2015-Apr-19 23:33N 33°44' W 118°16'0 0.0
2015-Apr-19 22:33N 33°44' W 118°16'0 0.0
2015-Apr-19 21:33N 33°44' W 118°16'0 0.0
2015-Apr-19 20:33N 33°44' W 118°16'0 0.0
2015-Apr-19 19:33N 33°44' W 118°16'0 0.0
2015-Apr-19 18:33N 33°44' W 118°16'0 0.0
2015-Apr-19 17:14N 33°44' W 118°16'0 0.0
2015-Apr-19 16:32N 33°44' W 118°16'0 0.0
2015-Apr-19 15:33N 33°44' W 118°16'0 0.0
2015-Apr-19 13:29N 33°44' W 118°16'0 0.0
2015-Apr-19 12:33N 33°44' W 118°16'0 0.0
2015-Apr-19 10:33N 33°44' W 118°16'0 0.0
2015-Apr-19 09:33N 33°44' W 118°16'0 0.0
2015-Apr-19 08:33N 33°44' W 118°16'0 0.0
2015-Apr-19 07:33N 33°44' W 118°16'0 0.0
2015-Apr-19 06:33N 33°44' W 118°16'0 0.0
2015-Apr-19 05:33N 33°44' W 118°16'0 0.0
2015-Apr-19 04:33N 33°44' W 118°16'0 0.0
2015-Apr-19 03:33N 33°44' W 118°16'0 0.0
2015-Apr-19 02:33N 33°44' W 118°16'0 0.0
2015-Apr-19 01:33N 33°44' W 118°16'0 0.0
2015-Apr-19 00:33N 33°44' W 118°16'0 0.0
2015-Apr-18 23:33N 33°44' W 118°16'0 0.0
2015-Apr-18 22:33N 33°44' W 118°16'0 0.0
2015-Apr-18 21:33N 33°44' W 118°16'0 0.0
2015-Apr-18 20:33N 33°44' W 118°16'0 0.0
2015-Apr-18 19:33N 33°44' W 118°16'0 0.0
2015-Apr-18 18:33N 33°44' W 118°16'0 0.0
2015-Apr-18 17:33N 33°44' W 118°16'0 0.1
2015-Apr-18 16:33N 33°44' W 118°16'1 1.1
2015-Apr-18 15:33N 33°45' W 118°16'2 1.6
2015-Apr-18 14:33N 33°43' W 118°16'2 2.3
2015-Apr-18 13:31N 33°46' W 118°16'3 3.0
2015-Apr-18 12:34N 33°43' W 118°15'2 2.3
2015-Apr-18 11:34N 33°44' W 118°17'1 0.8
2015-Apr-18 10:33N 33°45' W 118°16'1 1.3
2015-Apr-18 09:33N 33°44' W 118°16'0 0.0
2015-Apr-18 02:33N 33°44' W 118°16'2 1.7
2015-Apr-18 01:33N 33°46' W 118°16'3 2.9
2015-Apr-18 00:33N 33°43' W 118°14'2 2.2
2015-Apr-17 23:33N 33°44' W 118°11'4 3.6
2015-Apr-17 22:33N 33°44' W 118°16'1 0.3
2015-Apr-17 18:24N 33°45' W 118°17'1 0.8
2015-Apr-17 17:28N 33°45' W 118°17'2 0.9
2015-Apr-17 15:33N 33°44' W 118°16'3 2.5
2015-Apr-17 14:32N 33°44' W 118°13'2 2.4
2015-Apr-17 13:30N 33°44' W 118°16'2 2.5
2015-Apr-17 12:33N 33°45' W 118°13'0 0.2
2015-Apr-17 10:09N 33°45' W 118°13'0 0.0
2015-Apr-17 09:32N 33°45' W 118°13'1 0.9
2015-Apr-17 08:33N 33°46' W 118°13'1 0.4
2015-Apr-17 05:20N 33°46' W 118°15'2 2.7
2015-Apr-17 04:33N 33°44' W 118°16'0 0.1
2015-Apr-17 03:20N 33°44' W 118°16'0 0.0
2015-Apr-17 02:23N 33°44' W 118°16'0 0.0
2015-Apr-17 01:31N 33°44' W 118°16'0 0.0
2015-Apr-17 00:22N 33°44' W 118°16'0 0.0
2015-Apr-16 19:16N 33°44' W 118°16'2 2.3
2015-Apr-16 18:21N 33°44' W 118°13'2 2.8
2015-Apr-16 17:33N 33°46' W 118°14'3 1.2
2015-Apr-16 15:26N 33°44' W 118°16'0 0.1
2015-Apr-16 14:33N 33°44' W 118°16'2 2.4
2015-Apr-16 13:33N 33°45' W 118°13'1 0.6
2015-Apr-16 12:33N 33°45' W 118°13'3 2.7
2015-Apr-16 11:32N 33°44' W 118°16'1 0.7
2015-Apr-16 10:33N 33°44' W 118°15'0 0.0
2015-Apr-16 09:33N 33°44' W 118°15'0 0.0
2015-Apr-16 08:33N 33°44' W 118°15'0 0.0
2015-Apr-16 07:33N 33°44' W 118°15'0 0.0
2015-Apr-16 06:33N 33°44' W 118°15'1 0.7
2015-Apr-16 04:31N 33°44' W 118°17'1 1.0
2015-Apr-16 03:33N 33°44' W 118°16'3 2.7
2015-Apr-16 02:33N 33°45' W 118°13'0 0.1
2015-Apr-16 01:34N 33°45' W 118°13'2 2.1
2015-Apr-16 00:33N 33°44' W 118°11'2 2.3
2015-Apr-15 23:33N 33°43' W 118°14'2 1.6
2015-Apr-15 22:33N 33°44' W 118°16'  
Track history (hours):
 
Tides and Currents Weather Stations Pressure Air Temp Water Temp Dewpoint Dewpoint Depression Visibility Wind Speed Wind Dir Waves Ship Positions

Tim Quigg

Owner: Harley Marine Services, Inc, Seattle, WA. More information available from US FCC via Universal Licensing System and Coast Guard Vessel Documentation Center.

Last reported at 2015-Apr-25 22:29 UTC. Time now 2015-Apr-26 13:04 UTC.
Position N 33°44' W 118°17'.

; draft 7.5 m.

Type: Tug. MMSI: 366926740.

Date/timePositionNaut miles runAvg speedWind from/ knotsBaromVisibWave heightAir tempDewpointWater temp
2015-Apr-25 22:29N 33°44' W 118°17'3 1.7
2015-Apr-25 20:33N 33°46' W 118°13'1 0.8
2015-Apr-25 19:33N 33°47' W 118°13'0 0.0
2015-Apr-25 18:33N 33°47' W 118°13'0 0.0
2015-Apr-25 17:33N 33°47' W 118°13'0 0.0
2015-Apr-25 16:33N 33°47' W 118°13'0 0.0
2015-Apr-25 15:33N 33°47' W 118°13'0 0.0
2015-Apr-25 14:32N 33°47' W 118°13'0 0.0
2015-Apr-25 13:32N 33°47' W 118°13'0 0.0
2015-Apr-25 12:04N 33°47' W 118°13'0 0.0
2015-Apr-25 10:27N 33°47' W 118°13'0 0.0
2015-Apr-24 23:20N 33°47' W 118°13'0 0.0
2015-Apr-24 22:22N 33°47' W 118°13'0 0.0
2015-Apr-24 21:31N 33°47' W 118°13'0 0.0
2015-Apr-24 20:23N 33°47' W 118°13'0 0.0
2015-Apr-24 19:33N 33°47' W 118°13'1 0.6
2015-Apr-24 18:34N 33°46' W 118°13'3 3.1
2015-Apr-24 17:33N 33°44' W 118°16'0 0.0
2015-Apr-23 21:18N 33°44' W 118°16'0 0.0
2015-Apr-23 20:26N 33°44' W 118°16'0 0.0
2015-Apr-23 19:28N 33°44' W 118°16'0 0.0
2015-Apr-23 18:31N 33°44' W 118°16'1 0.2
2015-Apr-23 12:17N 33°45' W 118°16'1 0.3
2015-Apr-23 09:32N 33°46' W 118°16'4 2.7
2015-Apr-23 08:10N 33°44' W 118°12'0 0.0
2015-Apr-23 07:33N 33°44' W 118°12'4 1.3
2015-Apr-23 04:33N 33°46' W 118°16'3 0.6
2015-Apr-22 23:05N 33°42' W 118°15'2 3.1
2015-Apr-22 22:33N 33°44' W 118°14'2 2.0
2015-Apr-22 21:33N 33°45' W 118°13'1 0.6
2015-Apr-22 20:33N 33°45' W 118°13'3 1.7
2015-Apr-22 19:04N 33°44' W 118°16'0 0.0
2015-Apr-22 18:32N 33°44' W 118°16'3 2.6
2015-Apr-22 17:33N 33°45' W 118°13'1 1.2
2015-Apr-22 16:32N 33°46' W 118°13'1 1.3
2015-Apr-22 15:24N 33°45' W 118°13'1 0.8
2015-Apr-22 14:29N 33°44' W 118°12'3 1.5
2015-Apr-22 12:33N 33°45' W 118°16'2 0.5
2015-Apr-22 09:04N 33°44' W 118°15'2 2.5
2015-Apr-22 08:21N 33°44' W 118°13'2 2.4
2015-Apr-22 07:32N 33°46' W 118°13'0 0.4
2015-Apr-22 06:31N 33°46' W 118°13'4 1.5
2015-Apr-22 04:11N 33°44' W 118°16'0 0.0
2015-Apr-22 03:08N 33°44' W 118°16'0 0.6
2015-Apr-22 02:30N 33°43' W 118°16'3 2.4
2015-Apr-22 01:19N 33°45' W 118°13'0 0.1
2015-Apr-22 00:33N 33°45' W 118°13'2 2.0
2015-Apr-21 23:33N 33°44' W 118°12'3 3.1
2015-Apr-21 22:33N 33°44' W 118°16'0 0.0
2015-Apr-21 21:32N 33°44' W 118°16'0 0.0
2015-Apr-21 20:20N 33°44' W 118°16'0 0.0
2015-Apr-21 19:30N 33°44' W 118°16'1 1.3
2015-Apr-21 18:31N 33°45' W 118°16'2 1.6
2015-Apr-21 17:18N 33°43' W 118°16'4 2.2
2015-Apr-21 15:33N 33°46' W 118°13'1 1.0
2015-Apr-21 14:33N 33°45' W 118°13'0 0.0
2015-Apr-21 13:33N 33°45' W 118°13'3 2.5
2015-Apr-21 12:31N 33°45' W 118°16'2 0.3
2015-Apr-21 05:12N 33°44' W 118°14'3 1.6
2015-Apr-21 03:32N 33°46' W 118°16'0 0.2
2015-Apr-21 02:29N 33°46' W 118°16'2 2.6
2015-Apr-21 01:33N 33°46' W 118°13'2 2.0
2015-Apr-21 00:33N 33°44' W 118°13'0 0.2
2015-Apr-20 23:33N 33°45' W 118°13'2 2.0
2015-Apr-20 22:33N 33°46' W 118°13'1 1.3
2015-Apr-20 21:33N 33°45' W 118°13'3 2.6
2015-Apr-20 20:31N 33°44' W 118°16'0 0.1
2015-Apr-20 18:32N 33°44' W 118°16'0 0.0
2015-Apr-20 17:17N 33°44' W 118°16'3 4.3
2015-Apr-20 16:33N 33°46' W 118°13'3 0.6
2015-Apr-20 11:32N 33°45' W 118°16'0 0.1
2015-Apr-20 10:32N 33°45' W 118°16'1 0.5
2015-Apr-20 08:22N 33°44' W 118°16'0 0.0
2015-Apr-20 07:14N 33°44' W 118°16'0 0.0
2015-Apr-20 06:33N 33°44' W 118°16'0 0.0
2015-Apr-20 05:33N 33°44' W 118°16'0 0.0
2015-Apr-20 04:33N 33°44' W 118°16'0 0.0
2015-Apr-20 03:33N 33°44' W 118°16'0 0.0
2015-Apr-20 02:33N 33°44' W 118°16'0 0.0
2015-Apr-20 01:33N 33°44' W 118°16'0 0.0
2015-Apr-20 00:33N 33°44' W 118°16'0 0.0
2015-Apr-19 23:33N 33°44' W 118°16'0 0.0
2015-Apr-19 22:33N 33°44' W 118°16'0 0.0
2015-Apr-19 21:33N 33°44' W 118°16'0 0.0
2015-Apr-19 20:33N 33°44' W 118°16'0 0.0
2015-Apr-19 19:33N 33°44' W 118°16'0 0.0
2015-Apr-19 18:33N 33°44' W 118°16'0 0.0
2015-Apr-19 17:14N 33°44' W 118°16'0 0.0
2015-Apr-19 16:32N 33°44' W 118°16'0 0.0
2015-Apr-19 15:33N 33°44' W 118°16'0 0.0
2015-Apr-19 13:29N 33°44' W 118°16'0 0.0
2015-Apr-19 12:33N 33°44' W 118°16'0 0.0
2015-Apr-19 10:33N 33°44' W 118°16'0 0.0
2015-Apr-19 09:33N 33°44' W 118°16'0 0.0
2015-Apr-19 08:33N 33°44' W 118°16'0 0.0
2015-Apr-19 07:33N 33°44' W 118°16'0 0.0
2015-Apr-19 06:33N 33°44' W 118°16'0 0.0
2015-Apr-19 05:33N 33°44' W 118°16'0 0.0
2015-Apr-19 04:33N 33°44' W 118°16'0 0.0
2015-Apr-19 03:33N 33°44' W 118°16'0 0.0
2015-Apr-19 02:33N 33°44' W 118°16'0 0.0
2015-Apr-19 01:33N 33°44' W 118°16'0 0.0
2015-Apr-19 00:33N 33°44' W 118°16'0 0.0
2015-Apr-18 23:33N 33°44' W 118°16'0 0.0
2015-Apr-18 22:33N 33°44' W 118°16'0 0.0
2015-Apr-18 21:33N 33°44' W 118°16'0 0.0
2015-Apr-18 20:33N 33°44' W 118°16'0 0.0
2015-Apr-18 19:33N 33°44' W 118°16'0 0.0
2015-Apr-18 18:33N 33°44' W 118°16'0 0.0
2015-Apr-18 17:33N 33°44' W 118°16'0 0.1
2015-Apr-18 16:33N 33°44' W 118°16'1 1.1
2015-Apr-18 15:33N 33°45' W 118°16'2 1.6
2015-Apr-18 14:33N 33°43' W 118°16'2 2.3
2015-Apr-18 13:31N 33°46' W 118°16'3 3.0
2015-Apr-18 12:34N 33°43' W 118°15'2 2.3
2015-Apr-18 11:34N 33°44' W 118°17'1 0.8
2015-Apr-18 10:33N 33°45' W 118°16'1 1.3
2015-Apr-18 09:33N 33°44' W 118°16'0 0.0
2015-Apr-18 02:33N 33°44' W 118°16'2 1.7
2015-Apr-18 01:33N 33°46' W 118°16'3 2.9
2015-Apr-18 00:33N 33°43' W 118°14'2 2.2
2015-Apr-17 23:33N 33°44' W 118°11'4 3.6
2015-Apr-17 22:33N 33°44' W 118°16'1 0.3
2015-Apr-17 18:24N 33°45' W 118°17'1 0.8
2015-Apr-17 17:28N 33°45' W 118°17'2 0.9
2015-Apr-17 15:33N 33°44' W 118°16'3 2.5
2015-Apr-17 14:32N 33°44' W 118°13'2 2.4
2015-Apr-17 13:30N 33°44' W 118°16'2 2.5
2015-Apr-17 12:33N 33°45' W 118°13'0 0.2
2015-Apr-17 10:09N 33°45' W 118°13'0 0.0
2015-Apr-17 09:32N 33°45' W 118°13'1 0.9
2015-Apr-17 08:33N 33°46' W 118°13'1 0.4
2015-Apr-17 05:20N 33°46' W 118°15'2 2.7
2015-Apr-17 04:33N 33°44' W 118°16'0 0.1
2015-Apr-17 03:20N 33°44' W 118°16'0 0.0
2015-Apr-17 02:23N 33°44' W 118°16'0 0.0
2015-Apr-17 01:31N 33°44' W 118°16'0 0.0
2015-Apr-17 00:22N 33°44' W 118°16'0 0.0
2015-Apr-16 19:16N 33°44' W 118°16'2 2.3
2015-Apr-16 18:21N 33°44' W 118°13'2 2.8
2015-Apr-16 17:33N 33°46' W 118°14'3 1.2
2015-Apr-16 15:26N 33°44' W 118°16'0 0.1
2015-Apr-16 14:33N 33°44' W 118°16'2 2.4
2015-Apr-16 13:33N 33°45' W 118°13'1 0.6
2015-Apr-16 12:33N 33°45' W 118°13'3 2.7
2015-Apr-16 11:32N 33°44' W 118°16'1 0.7
2015-Apr-16 10:33N 33°44' W 118°15'0 0.0
2015-Apr-16 09:33N 33°44' W 118°15'0 0.0
2015-Apr-16 08:33N 33°44' W 118°15'0 0.0
2015-Apr-16 07:33N 33°44' W 118°15'0 0.0
2015-Apr-16 06:33N 33°44' W 118°15'1 0.7
2015-Apr-16 04:31N 33°44' W 118°17'1 1.0
2015-Apr-16 03:33N 33°44' W 118°16'3 2.7
2015-Apr-16 02:33N 33°45' W 118°13'0 0.1
2015-Apr-16 01:34N 33°45' W 118°13'2 2.1
2015-Apr-16 00:33N 33°44' W 118°11'2 2.3
2015-Apr-15 23:33N 33°43' W 118°14'2 1.6
2015-Apr-15 22:33N 33°44' W 118°16'  

Dump ship's entire track history